Chardonnay Of Solent — MPMA4 — position and weather

sailwx.info

Track history (hours):
 
Tides and Currents Weather Stations Pressure Air Temp Water Temp Dewpoint Dewpoint Depression Visibility Wind Speed Wind Dir Waves Ship Positions

Chardonnay Of Solent

Last reported at 2018-Mar-24 13:49 UTC. Time now 2018-Jun-22 23:04 UTC.
Position N 14°21' W 060°56'.
Warning: this ship's position is months out of date.

Length 11 m.

Type: Sailing vessel. MMSI: 235021052.

Date/timePositionNaut miles runAvg speedWind from/ knotsBaromVisibWave heightAir tempDewpointWater temp
2018-Mar-24 13:49N 14°21' W 060°56'3 5.5
2018-Mar-24 13:19N 14°24' W 060°55'3 4.1
2018-Mar-24 12:39N 14°27' W 060°54'1 5.9
2018-Mar-24 12:25N 14°27' W 060°53'1 0.1
2018-Mar-23 20:15N 14°28' W 060°52'0 0.1
2018-Mar-23 19:50N 14°27' W 060°52'1 0.3
2018-Mar-23 17:43N 14°28' W 060°52'1 2.5
2018-Mar-23 17:30N 14°28' W 060°53'2 0.0
2018-Mar-21 20:07N 14°26' W 060°53'0 0.0
2018-Mar-21 19:49N 14°26' W 060°53'1 1.8
2018-Mar-21 19:28N 14°26' W 060°53'2 3.3
2018-Mar-21 19:00N 14°28' W 060°53'0 0.4
2018-Mar-21 18:18N 14°28' W 060°53'0 0.0
2018-Mar-21 18:00N 14°28' W 060°53'0 0.0
2018-Mar-21 17:30N 14°28' W 060°53'1 1.2
2018-Mar-21 17:00N 14°28' W 060°52'0 0.0
2018-Mar-21 14:27N 14°28' W 060°52'0 0.1
2018-Mar-21 13:57N 14°28' W 060°52'1 1.2
2018-Mar-21 13:26N 14°28' W 060°53'0 0.0
2018-Mar-20 22:30N 14°28' W 060°53'1 2.1
2018-Mar-20 22:00N 14°27' W 060°53'3 5.2
2018-Mar-20 21:31N 14°27' W 060°56'2 4.5
2018-Mar-20 20:59N 14°27' W 060°58'2 4.4
2018-Mar-20 20:30N 14°27' W 061°01'  
Track history (hours):
 
Tides and Currents Weather Stations Pressure Air Temp Water Temp Dewpoint Dewpoint Depression Visibility Wind Speed Wind Dir Waves Ship Positions

Chardonnay Of Solent

Last reported at 2018-Mar-24 13:49 UTC. Time now 2018-Jun-22 23:04 UTC.
Position N 14°21' W 060°56'.
Warning: this ship's position is months out of date.

Length 11 m.

Type: Sailing vessel. MMSI: 235021052.

Date/timePositionNaut miles runAvg speedWind from/ knotsBaromVisibWave heightAir tempDewpointWater temp
2018-Mar-24 13:49N 14°21' W 060°56'3 5.5
2018-Mar-24 13:19N 14°24' W 060°55'3 4.1
2018-Mar-24 12:39N 14°27' W 060°54'1 5.9
2018-Mar-24 12:25N 14°27' W 060°53'1 0.1
2018-Mar-23 20:15N 14°28' W 060°52'0 0.1
2018-Mar-23 19:50N 14°27' W 060°52'1 0.3
2018-Mar-23 17:43N 14°28' W 060°52'1 2.5
2018-Mar-23 17:30N 14°28' W 060°53'2 0.0
2018-Mar-21 20:07N 14°26' W 060°53'0 0.0
2018-Mar-21 19:49N 14°26' W 060°53'1 1.8
2018-Mar-21 19:28N 14°26' W 060°53'2 3.3
2018-Mar-21 19:00N 14°28' W 060°53'0 0.4
2018-Mar-21 18:18N 14°28' W 060°53'0 0.0
2018-Mar-21 18:00N 14°28' W 060°53'0 0.0
2018-Mar-21 17:30N 14°28' W 060°53'1 1.2
2018-Mar-21 17:00N 14°28' W 060°52'0 0.0
2018-Mar-21 14:27N 14°28' W 060°52'0 0.1
2018-Mar-21 13:57N 14°28' W 060°52'1 1.2
2018-Mar-21 13:26N 14°28' W 060°53'0 0.0
2018-Mar-20 22:30N 14°28' W 060°53'1 2.1
2018-Mar-20 22:00N 14°27' W 060°53'3 5.2
2018-Mar-20 21:31N 14°27' W 060°56'2 4.5
2018-Mar-20 20:59N 14°27' W 060°58'2 4.4
2018-Mar-20 20:30N 14°27' W 061°01'  

Dump ship's entire track history